Terminal Aerodrome Forecast
Issued by NWS Knoxville/Tri Cities, TN

Home | Current Version | Previous Version | Text Only | Print | Product List | Glossary On
Versions: 1 2 3 4 5 6 7 8 9 10 11 12 13 14 15 16 17 18 19 20 21 22 23 24 25 26 27 28 29 30 31 32
000
FTUS44 KMRX 271722
TAFTRI
TAF
KTRI 271722Z 2718/2818 24008KT P6SM SCT040 BKN200
     FM280000 VRB03KT P6SM SCT045 BKN200
     FM280900 00000KT 6SM BR FEW040 BKN150
     FM281200 VRB03KT P6SM SCT040 BKN120=

USA.gov is the U.S. government's official web portal to all federal, state and local government web resources and services.